Terminal Aerodrome Forecast
Issued by NWS Denver/Boulder, CO

Home | Current Version | Previous Version | Text Only | Print | Product List | Glossary On
Versions: 1 2 3 4 5 6 7 8 9 10 11 12 13 14 15 16 17 18 19 20 21 22 23 24 25 26 27 28 29 30 31 32 33 34 35 36 37 38 39 40 41 42 43 44 45 46 47 48 49 50
000
FTUS45 KBOU 280006 AAB
TAFDEN
TAF AMD
KDEN 280006Z 2800/2906 17014G21KT P6SM SCT050 BKN100 BKN150
      TEMPO 2800/2802 VRB18G25KT -TSRA BKN050CB BKN080
     FM280200 09011KT P6SM VCTS SCT050CB BKN100
     FM280600 18008KT P6SM SCT070 BKN120
     FM280900 32006KT P6SM FEW040 SCT060 BKN120
      TEMPO 2812/2816 SCT012 BKN025
     FM281600 VRB05KT P6SM SCT025 BKN050
     FM281900 14009KT P6SM VCSH BKN060 BKN120
      TEMPO 2822/2902 VRB20G30KT -TSRA BKN050CB
     FM290400 18011KT P6SM SCT070 OVC120=

USA.gov is the U.S. government's official web portal to all federal, state and local government web resources and services.